sensor_id;sensor_type;location;lat;lon;timestamp;pressure;altitude;pressure_sealevel;temperature;humidity
31088;BME280;17745;55.914;37.554;2022-10-03T00:50:50;97198.34;;;16.32;72.98
31088;BME280;17745;55.914;37.554;2022-10-03T00:54:22;97204.25;;;16.37;73.10
31088;BME280;17745;55.914;37.554;2022-10-03T01:02:19;97183.34;;;16.55;73.01
31088;BME280;17745;55.914;37.554;2022-10-03T01:05:18;97184.31;;;16.63;73.13
31088;BME280;17745;55.914;37.554;2022-10-03T01:18:40;97179.19;;;16.86;73.25
31088;BME280;17745;55.914;37.554;2022-10-03T01:21:18;97169.25;;;16.87;73.45
31088;BME280;17745;55.914;37.554;2022-10-03T01:27:11;97161.50;;;16.98;73.58
31088;BME280;17745;55.914;37.554;2022-10-03T01:29:49;97160.06;;;17.00;73.64
31088;BME280;17745;55.914;37.554;2022-10-03T01:32:40;97145.69;;;17.05;73.52
31088;BME280;17745;55.914;37.554;2022-10-03T01:35:35;97149.97;;;17.10;73.59
31088;BME280;17745;55.914;37.554;2022-10-03T01:38:28;97145.94;;;17.16;73.53
31088;BME280;17745;55.914;37.554;2022-10-03T01:41:23;97141.16;;;17.25;73.49
31088;BME280;17745;55.914;37.554;2022-10-03T01:44:12;97136.25;;;17.27;73.30
31088;BME280;17745;55.914;37.554;2022-10-03T01:47:16;97118.72;;;17.30;73.35
31088;BME280;17745;55.914;37.554;2022-10-03T01:49:55;97120.72;;;17.33;73.43
31088;BME280;17745;55.914;37.554;2022-10-03T01:52:35;97113.53;;;17.37;73.52
31088;BME280;17745;55.914;37.554;2022-10-03T01:55:11;97124.31;;;17.41;73.52
31088;BME280;17745;55.914;37.554;2022-10-03T01:57:45;97109.03;;;17.41;73.51
31088;BME280;17745;55.914;37.554;2022-10-03T02:00:21;97100.25;;;17.41;73.68
31088;BME280;17745;55.914;37.554;2022-10-03T02:03:05;97110.56;;;17.42;73.73
31088;BME280;17745;55.914;37.554;2022-10-03T02:05:56;97106.78;;;17.43;73.89
31088;BME280;17745;55.914;37.554;2022-10-03T02:09:19;97106.88;;;17.47;73.77
31088;BME280;17745;55.914;37.554;2022-10-03T02:12:22;97108.91;;;17.54;73.72
31088;BME280;17745;55.914;37.554;2022-10-03T02:15:15;97090.28;;;17.57;73.83
31088;BME280;17745;55.914;37.554;2022-10-03T02:21:58;97091.19;;;17.65;73.62
31088;BME280;17745;55.914;37.554;2022-10-03T02:24:39;97079.00;;;17.68;73.65
31088;BME280;17745;55.914;37.554;2022-10-03T02:37:44;97083.66;;;17.71;73.83
31088;BME280;17745;55.914;37.554;2022-10-03T02:43:56;97065.00;;;17.75;73.81
31088;BME280;17745;55.914;37.554;2022-10-03T03:00:43;97054.09;;;17.83;74.05
31088;BME280;17745;55.914;37.554;2022-10-03T03:03:34;97052.63;;;17.86;74.09
31088;BME280;17745;55.914;37.554;2022-10-03T03:12:41;97047.81;;;17.95;74.10
31088;BME280;17745;55.914;37.554;2022-10-03T03:18:33;97042.53;;;17.99;74.08
31088;BME280;17745;55.914;37.554;2022-10-03T03:21:17;97039.47;;;18.00;74.18
31088;BME280;17745;55.914;37.554;2022-10-03T03:24:13;97031.44;;;18.00;74.19
31088;BME280;17745;55.914;37.554;2022-10-03T03:27:20;97031.88;;;18.03;74.16
31088;BME280;17745;55.914;37.554;2022-10-03T03:30:04;97029.63;;;18.05;74.11
31088;BME280;17745;55.914;37.554;2022-10-03T03:33:04;97036.13;;;18.04;74.06
31088;BME280;17745;55.914;37.554;2022-10-03T03:35:48;97034.63;;;18.06;73.86
31088;BME280;17745;55.914;37.554;2022-10-03T03:38:30;97024.28;;;18.05;74.17
31088;BME280;17745;55.914;37.554;2022-10-03T03:41:19;97024.28;;;18.05;74.28
31088;BME280;17745;55.914;37.554;2022-10-03T03:44:08;97030.84;;;18.07;74.17
31088;BME280;17745;55.914;37.554;2022-10-03T03:47:10;97023.22;;;18.09;74.10
31088;BME280;17745;55.914;37.554;2022-10-03T03:50:01;97016.38;;;18.12;74.08
31088;BME280;17745;55.914;37.554;2022-10-03T03:53:01;97008.84;;;18.18;74.00
31088;BME280;17745;55.914;37.554;2022-10-03T03:55:53;97012.69;;;18.20;73.86
31088;BME280;17745;55.914;37.554;2022-10-03T03:58:35;97010.41;;;18.22;74.00
31088;BME280;17745;55.914;37.554;2022-10-03T04:01:31;97008.84;;;18.18;74.13
31088;BME280;17745;55.914;37.554;2022-10-03T04:04:20;97017.56;;;18.14;74.33
31088;BME280;17745;55.914;37.554;2022-10-03T04:06:56;97009.59;;;18.18;74.48
31088;BME280;17745;55.914;37.554;2022-10-03T04:10:02;97011.56;;;18.21;74.52
31088;BME280;17745;55.914;37.554;2022-10-03T04:12:45;96984.53;;;18.30;74.33
31088;BME280;17745;55.914;37.554;2022-10-03T04:15:38;96989.97;;;18.34;74.36
31088;BME280;17745;55.914;37.554;2022-10-03T04:18:22;96981.69;;;18.42;74.31
31088;BME280;17745;55.914;37.554;2022-10-03T04:27:29;96968.78;;;18.52;74.43
31088;BME280;17745;55.914;37.554;2022-10-03T04:30:07;96958.91;;;18.56;74.57
31088;BME280;17745;55.914;37.554;2022-10-03T04:32:51;96957.41;;;18.58;74.62
31088;BME280;17745;55.914;37.554;2022-10-03T04:35:36;96959.78;;;18.64;74.59
31088;BME280;17745;55.914;37.554;2022-10-03T04:38:14;96944.84;;;18.63;74.72
31088;BME280;17745;55.914;37.554;2022-10-03T04:40:48;96949.06;;;18.64;74.66
31088;BME280;17745;55.914;37.554;2022-10-03T04:43:33;96947.97;;;18.68;74.69
31088;BME280;17745;55.914;37.554;2022-10-03T04:46:17;96945.72;;;18.70;74.64
31088;BME280;17745;55.914;37.554;2022-10-03T04:48:55;96948.81;;;18.72;74.80
31088;BME280;17745;55.914;37.554;2022-10-03T04:51:40;96940.75;;;18.72;74.60
31088;BME280;17745;55.914;37.554;2022-10-03T04:54:18;96940.75;;;18.72;74.74
31088;BME280;17745;55.914;37.554;2022-10-03T04:56:58;96936.59;;;18.75;75.00
31088;BME280;17745;55.914;37.554;2022-10-03T04:59:40;96935.88;;;18.78;74.75
31088;BME280;17745;55.914;37.554;2022-10-03T05:02:33;96931.28;;;18.79;74.94
31088;BME280;17745;55.914;37.554;2022-10-03T05:05:25;96936.31;;;18.84;74.75
31088;BME280;17745;55.914;37.554;2022-10-03T05:07:57;96923.38;;;18.90;74.65
31088;BME280;17745;55.914;37.554;2022-10-03T05:10:43;96928.91;;;19.00;74.35
31088;BME280;17745;55.914;37.554;2022-10-03T05:13:21;96931.59;;;19.00;74.67
31088;BME280;17745;55.914;37.554;2022-10-03T05:16:03;96923.97;;;19.06;74.90
31088;BME280;17745;55.914;37.554;2022-10-03T05:18:40;96916.38;;;19.08;74.71
31088;BME280;17745;55.914;37.554;2022-10-03T05:21:12;96916.00;;;19.10;74.91
31088;BME280;17745;55.914;37.554;2022-10-03T05:23:55;96913.75;;;19.16;74.96
31088;BME280;17745;55.914;37.554;2022-10-03T05:30:36;96907.72;;;19.26;74.74
31088;BME280;17745;55.914;37.554;2022-10-03T05:33:41;96912.28;;;19.22;74.53
31088;BME280;17745;55.914;37.554;2022-10-03T05:36:27;96911.12;;;19.19;74.24
31088;BME280;17745;55.914;37.554;2022-10-03T05:39:23;96902.34;;;19.22;74.40
31088;BME280;17745;55.914;37.554;2022-10-03T05:42:28;96899.28;;;19.24;74.24
31088;BME280;17745;55.914;37.554;2022-10-03T05:53:20;96873.47;;;19.46;74.32
31088;BME280;17745;55.914;37.554;2022-10-03T05:56:07;96868.94;;;19.57;74.18
31088;BME280;17745;55.914;37.554;2022-10-03T05:59:06;96862.47;;;19.62;73.99
31088;BME280;17745;55.914;37.554;2022-10-03T06:01:59;96857.94;;;19.70;74.19
31088;BME280;17745;55.914;37.554;2022-10-03T06:08:26;96833.53;;;19.82;73.59
31088;BME280;17745;55.914;37.554;2022-10-03T06:11:46;96833.13;;;19.80;73.46
31088;BME280;17745;55.914;37.554;2022-10-03T06:14:30;96826.62;;;19.81;73.58
31088;BME280;17745;55.914;37.554;2022-10-03T06:17:43;96819.34;;;19.85;73.76
31088;BME280;17745;55.914;37.554;2022-10-03T06:24:23;96818.97;;;19.87;73.64
31088;BME280;17745;55.914;37.554;2022-10-03T06:27:25;96818.56;;;19.85;73.58
31088;BME280;17745;55.914;37.554;2022-10-03T06:33:57;96815.19;;;19.92;73.33
31088;BME280;17745;55.914;37.554;2022-10-03T06:38:04;96813.94;;;19.82;73.29
31088;BME280;17745;55.914;37.554;2022-10-03T06:44:26;96811.97;;;19.71;73.35
31088;BME280;17745;55.914;37.554;2022-10-03T06:47:19;96804.59;;;19.61;73.88
31088;BME280;17745;55.914;37.554;2022-10-03T06:50:36;96806.13;;;19.62;73.87
31088;BME280;17745;55.914;37.554;2022-10-03T06:54:07;96788.09;;;19.59;73.84
31088;BME280;17745;55.914;37.554;2022-10-03T06:57:30;96799.09;;;19.47;74.02
31088;BME280;17745;55.914;37.554;2022-10-03T07:00:18;96787.50;;;19.35;74.21
31088;BME280;17745;55.914;37.554;2022-10-03T07:03:27;96804.34;;;19.32;74.29
31088;BME280;17745;55.914;37.554;2022-10-03T07:07:14;96789.31;;;19.24;74.14
31088;BME280;17745;55.914;37.554;2022-10-03T07:10:45;96802.75;;;19.27;73.89
31088;BME280;17745;55.914;37.554;2022-10-03T08:29:24;96791.22;;;18.21;74.68
31088;BME280;17745;55.914;37.554;2022-10-03T08:32:32;96810.62;;;18.14;74.44
31088;BME280;17745;55.914;37.554;2022-10-03T08:35:29;96791.87;;;18.14;74.51
31088;BME280;17745;55.914;37.554;2022-10-03T08:45:09;96807.75;;;18.26;74.26
31088;BME280;17745;55.914;37.554;2022-10-03T08:58:25;96822.34;;;18.33;74.41
31088;BME280;17745;55.914;37.554;2022-10-03T09:09:08;96827.19;;;18.50;75.14
31088;BME280;17745;55.914;37.554;2022-10-03T09:12:18;96829.34;;;18.41;74.92
31088;BME280;17745;55.914;37.554;2022-10-03T09:15:05;96834.03;;;18.48;75.09
31088;BME280;17745;55.914;37.554;2022-10-03T09:18:00;96823.50;;;18.62;75.54
31088;BME280;17745;55.914;37.554;2022-10-03T09:21:14;96845.09;;;18.77;75.00
31088;BME280;17745;55.914;37.554;2022-10-03T09:27:28;96819.81;;;18.74;74.91
31088;BME280;17745;55.914;37.554;2022-10-03T09:30:21;96828.13;;;18.65;74.94
31088;BME280;17745;55.914;37.554;2022-10-03T09:33:41;96835.38;;;18.65;74.92
31088;BME280;17745;55.914;37.554;2022-10-03T09:40:22;96842.56;;;19.22;73.47
31088;BME280;17745;55.914;37.554;2022-10-03T09:43:49;96845.06;;;18.73;73.78
31088;BME280;17745;55.914;37.554;2022-10-03T09:47:21;96853.19;;;18.80;74.04
31088;BME280;17745;55.914;37.554;2022-10-03T09:51:01;96843.59;;;18.79;73.38
31088;BME280;17745;55.914;37.554;2022-10-03T09:53:40;96838.09;;;18.68;73.14
31088;BME280;17745;55.914;37.554;2022-10-03T09:56:39;96844.25;;;18.69;72.88
31088;BME280;17745;55.914;37.554;2022-10-03T09:59:37;96844.00;;;18.51;73.14
31088;BME280;17745;55.914;37.554;2022-10-03T10:02:31;96850.75;;;18.41;73.47
31088;BME280;17745;55.914;37.554;2022-10-03T10:11:46;96850.91;;;17.98;73.60
31088;BME280;17745;55.914;37.554;2022-10-03T10:15:08;96872.75;;;17.77;73.56
31088;BME280;17745;55.914;37.554;2022-10-03T10:21:56;96878.88;;;17.77;73.88
31088;BME280;17745;55.914;37.554;2022-10-03T10:25:05;96890.34;;;17.78;73.64
31088;BME280;17745;55.914;37.554;2022-10-03T10:45:37;96905.56;;;17.74;73.91
31088;BME280;17745;55.914;37.554;2022-10-03T10:51:55;96907.22;;;17.82;73.50
31088;BME280;17745;55.914;37.554;2022-10-03T10:58:44;96925.91;;;17.15;74.15
31088;BME280;17745;55.914;37.554;2022-10-03T11:01:55;96937.44;;;17.00;74.41
31088;BME280;17745;55.914;37.554;2022-10-03T11:05:00;96935.63;;;17.04;74.09
31088;BME280;17745;55.914;37.554;2022-10-03T11:18:22;96960.16;;;17.29;74.26
31088;BME280;17745;55.914;37.554;2022-10-03T11:24:29;96970.31;;;17.40;73.99
31088;BME280;17745;55.914;37.554;2022-10-03T11:31:04;96974.16;;;17.23;74.04
31088;BME280;17745;55.914;37.554;2022-10-03T11:52:07;97044.94;;;16.29;75.62
31088;BME280;17745;55.914;37.554;2022-10-03T11:54:45;97042.53;;;16.40;75.09
31088;BME280;17745;55.914;37.554;2022-10-03T11:57:32;97048.12;;;16.51;75.49
31088;BME280;17745;55.914;37.554;2022-10-03T12:00:24;97049.63;;;16.64;75.14
31088;BME280;17745;55.914;37.554;2022-10-03T12:13:05;97030.19;;;20.51;63.56
31088;BME280;17745;55.914;37.554;2022-10-03T12:15:44;97069.28;;;20.45;64.88
31088;BME280;17745;55.914;37.554;2022-10-03T12:18:24;97068.13;;;21.58;62.71
31088;BME280;17745;55.914;37.554;2022-10-03T12:21:34;97055.56;;;21.91;60.34
31088;BME280;17745;55.914;37.554;2022-10-03T12:24:25;97073.69;;;21.94;61.32
31088;BME280;17745;55.914;37.554;2022-10-03T12:27:05;97082.22;;;22.29;60.82
31088;BME280;17745;55.914;37.554;2022-10-03T12:30:01;97083.97;;;21.67;61.40
31088;BME280;17745;55.914;37.554;2022-10-03T12:32:40;97068.19;;;20.53;62.82
31088;BME280;17745;55.914;37.554;2022-10-03T12:35:25;97065.13;;;19.49;64.33
31088;BME280;17745;55.914;37.554;2022-10-03T12:38:15;97105.28;;;18.64;66.87
31088;BME280;17745;55.914;37.554;2022-10-03T12:40:57;97114.66;;;17.92;68.19
31088;BME280;17745;55.914;37.554;2022-10-03T12:43:43;97126.81;;;17.50;70.08
31088;BME280;17745;55.914;37.554;2022-10-03T12:49:42;97133.75;;;17.03;69.33
31088;BME280;17745;55.914;37.554;2022-10-03T12:52:50;97153.56;;;16.85;70.99
31088;BME280;17745;55.914;37.554;2022-10-03T12:55:34;97144.84;;;16.72;71.44
31088;BME280;17745;55.914;37.554;2022-10-03T12:58:23;97171.63;;;16.60;72.19
31088;BME280;17745;55.914;37.554;2022-10-03T13:01:20;97174.78;;;16.50;72.26
31088;BME280;17745;55.914;37.554;2022-10-03T13:34:00;97273.06;;;16.03;70.44
31088;BME280;17745;55.914;37.554;2022-10-03T13:36:44;97272.97;;;17.26;68.28
31088;BME280;17745;55.914;37.554;2022-10-03T13:39:41;97269.97;;;16.70;68.17
31088;BME280;17745;55.914;37.554;2022-10-03T13:42:53;97299.00;;;16.03;68.37
31088;BME280;17745;55.914;37.554;2022-10-03T13:45:24;97295.81;;;15.51;70.37
31088;BME280;17745;55.914;37.554;2022-10-03T13:47:57;97307.22;;;15.26;71.13
31088;BME280;17745;55.914;37.554;2022-10-03T13:50:34;97281.94;;;14.99;69.74
31088;BME280;17745;55.914;37.554;2022-10-03T13:53:10;97308.03;;;14.72;71.48
31088;BME280;17745;55.914;37.554;2022-10-03T13:55:44;97314.91;;;14.52;71.72
31088;BME280;17745;55.914;37.554;2022-10-03T14:01:26;97315.09;;;14.47;72.03
31088;BME280;17745;55.914;37.554;2022-10-03T14:04:27;97314.62;;;14.23;71.61
31088;BME280;17745;55.914;37.554;2022-10-03T14:07:09;97329.84;;;14.14;71.84
31088;BME280;17745;55.914;37.554;2022-10-03T14:12:55;97332.53;;;13.84;71.53
31088;BME280;17745;55.914;37.554;2022-10-03T14:15:33;97346.31;;;13.77;72.17
31088;BME280;17745;55.914;37.554;2022-10-03T14:18:17;97350.38;;;13.75;71.27
31088;BME280;17745;55.914;37.554;2022-10-03T14:24:39;97368.88;;;13.71;71.77
31088;BME280;17745;55.914;37.554;2022-10-03T14:27:31;97371.87;;;13.52;72.04
31088;BME280;17745;55.914;37.554;2022-10-03T14:30:04;97380.31;;;13.45;71.64
31088;BME280;17745;55.914;37.554;2022-10-03T14:32:41;97394.25;;;13.33;71.86
31088;BME280;17745;55.914;37.554;2022-10-03T14:35:21;97402.53;;;13.23;72.13
31088;BME280;17745;55.914;37.554;2022-10-03T14:37:56;97408.16;;;13.12;71.92
31088;BME280;17745;55.914;37.554;2022-10-03T14:40:39;97407.41;;;13.03;72.58
31088;BME280;17745;55.914;37.554;2022-10-03T14:43:35;97418.00;;;12.94;72.21
31088;BME280;17745;55.914;37.554;2022-10-03T14:46:06;97414.72;;;12.89;72.74
31088;BME280;17745;55.914;37.554;2022-10-03T14:49:04;97420.66;;;12.85;73.12
31088;BME280;17745;55.914;37.554;2022-10-03T14:51:50;97436.12;;;12.75;72.89
31088;BME280;17745;55.914;37.554;2022-10-03T14:54:23;97433.00;;;12.81;73.07
31088;BME280;17745;55.914;37.554;2022-10-03T14:57:20;97432.69;;;12.83;73.17
31088;BME280;17745;55.914;37.554;2022-10-03T15:00:27;97442.53;;;12.82;72.70
31088;BME280;17745;55.914;37.554;2022-10-03T15:04:20;97441.91;;;12.85;73.37
31088;BME280;17745;55.914;37.554;2022-10-03T15:07:07;97426.91;;;12.81;73.11
31088;BME280;17745;55.914;37.554;2022-10-03T15:09:41;97442.81;;;12.72;73.42
31088;BME280;17745;55.914;37.554;2022-10-03T15:12:17;97446.25;;;12.64;73.13
31088;BME280;17745;55.914;37.554;2022-10-03T15:14:57;97463.13;;;12.68;73.32
31088;BME280;17745;55.914;37.554;2022-10-03T15:17:33;97453.44;;;12.72;73.36
31088;BME280;17745;55.914;37.554;2022-10-03T15:20:07;97452.69;;;12.80;73.65
31088;BME280;17745;55.914;37.554;2022-10-03T15:25:40;97462.06;;;12.95;73.50
31088;BME280;17745;55.914;37.554;2022-10-03T15:31:25;97457.53;;;12.78;72.92
31088;BME280;17745;55.914;37.554;2022-10-03T15:34:32;97461.88;;;12.83;73.41
31088;BME280;17745;55.914;37.554;2022-10-03T15:37:13;97460.44;;;12.59;73.36
31088;BME280;17745;55.914;37.554;2022-10-03T15:39:57;97472.66;;;12.78;73.77
31088;BME280;17745;55.914;37.554;2022-10-03T15:42:29;97474.06;;;12.84;73.49
31088;BME280;17745;55.914;37.554;2022-10-03T15:45:00;97484.56;;;12.89;73.80
31088;BME280;17745;55.914;37.554;2022-10-03T15:47:34;97466.59;;;12.95;73.73
31088;BME280;17745;55.914;37.554;2022-10-03T15:50:17;97466.12;;;12.93;73.46
31088;BME280;17745;55.914;37.554;2022-10-03T15:52:54;97467.56;;;12.99;73.27
31088;BME280;17745;55.914;37.554;2022-10-03T15:55:25;97478.31;;;13.02;73.41
31088;BME280;17745;55.914;37.554;2022-10-03T15:58:15;97484.44;;;13.03;73.49
31088;BME280;17745;55.914;37.554;2022-10-03T16:01:21;97481.16;;;13.06;73.19
31088;BME280;17745;55.914;37.554;2022-10-03T16:04:12;97479.44;;;13.10;72.92
31088;BME280;17745;55.914;37.554;2022-10-03T16:07:58;97462.25;;;13.08;73.19
31088;BME280;17745;55.914;37.554;2022-10-03T16:14:28;97488.91;;;12.85;73.46
31088;BME280;17745;55.914;37.554;2022-10-03T16:21:47;97493.00;;;12.82;73.22
31088;BME280;17745;55.914;37.554;2022-10-03T16:24:35;97491.91;;;12.83;72.85
31088;BME280;17745;55.914;37.554;2022-10-03T16:27:17;97492.38;;;12.85;73.54
31088;BME280;17745;55.914;37.554;2022-10-03T16:30:04;97499.53;;;12.85;73.25
31088;BME280;17745;55.914;37.554;2022-10-03T16:32:42;97524.03;;;12.73;73.05
31088;BME280;17745;55.914;37.554;2022-10-03T16:39:42;97505.25;;;12.52;73.47
31088;BME280;17745;55.914;37.554;2022-10-03T16:43:16;97509.28;;;12.49;73.86
31088;BME280;17745;55.914;37.554;2022-10-03T16:46:12;97515.25;;;12.55;73.92
31088;BME280;17745;55.914;37.554;2022-10-03T16:49:30;97507.56;;;12.53;74.00
31088;BME280;17745;55.914;37.554;2022-10-03T16:52:23;97514.44;;;12.54;73.73
31088;BME280;17745;55.914;37.554;2022-10-03T16:55:05;97515.53;;;12.53;73.66
31088;BME280;17745;55.914;37.554;2022-10-03T16:57:54;97524.47;;;12.57;73.91
31088;BME280;17745;55.914;37.554;2022-10-03T17:00:49;97527.12;;;12.57;73.93
31088;BME280;17745;55.914;37.554;2022-10-03T17:03:45;97530.38;;;12.54;73.96
31088;BME280;17745;55.914;37.554;2022-10-03T17:06:28;97537.28;;;12.55;73.89
31088;BME280;17745;55.914;37.554;2022-10-03T17:09:06;97547.13;;;12.64;73.87
31088;BME280;17745;55.914;37.554;2022-10-03T17:12:14;97524.19;;;12.68;74.01
31088;BME280;17745;55.914;37.554;2022-10-03T17:14:50;97544.66;;;12.67;73.94
31088;BME280;17745;55.914;37.554;2022-10-03T17:17:27;97539.50;;;12.71;74.34
31088;BME280;17745;55.914;37.554;2022-10-03T17:20:43;97558.25;;;12.75;74.07
31088;BME280;17745;55.914;37.554;2022-10-03T17:23:23;97545.47;;;12.85;74.03
31088;BME280;17745;55.914;37.554;2022-10-03T17:26:10;97550.00;;;12.85;74.08
31088;BME280;17745;55.914;37.554;2022-10-03T17:29:30;97558.56;;;12.73;74.16
31088;BME280;17745;55.914;37.554;2022-10-03T17:32:34;97563.72;;;12.69;73.77
31088;BME280;17745;55.914;37.554;2022-10-03T17:35:33;97583.22;;;12.65;74.28
31088;BME280;17745;55.914;37.554;2022-10-03T17:38:56;97588.47;;;12.56;73.43
31088;BME280;17745;55.914;37.554;2022-10-03T17:41:57;97586.69;;;12.42;74.26
31088;BME280;17745;55.914;37.554;2022-10-03T17:55:50;97592.59;;;12.39;74.09
31088;BME280;17745;55.914;37.554;2022-10-03T17:58:23;97602.44;;;12.39;74.10
31088;BME280;17745;55.914;37.554;2022-10-03T18:01:05;97594.31;;;12.35;74.27
31088;BME280;17745;55.914;37.554;2022-10-03T18:03:48;97603.34;;;12.34;74.37
31088;BME280;17745;55.914;37.554;2022-10-03T18:06:35;97597.09;;;12.30;74.52
31088;BME280;17745;55.914;37.554;2022-10-03T18:09:09;97604.56;;;12.28;74.10
31088;BME280;17745;55.914;37.554;2022-10-03T18:11:48;97605.75;;;12.22;74.01
31088;BME280;17745;55.914;37.554;2022-10-03T18:14:31;97600.09;;;12.14;73.84
31088;BME280;17745;55.914;37.554;2022-10-03T18:17:08;97606.44;;;12.05;73.82
31088;BME280;17745;55.914;37.554;2022-10-03T18:19:56;97603.31;;;12.03;74.24
31088;BME280;17745;55.914;37.554;2022-10-03T18:22:30;97597.78;;;11.99;74.07
31088;BME280;17745;55.914;37.554;2022-10-03T18:25:37;97584.34;;;11.95;74.40
31088;BME280;17745;55.914;37.554;2022-10-03T18:32:28;97604.00;;;11.94;74.69
31088;BME280;17745;55.914;37.554;2022-10-03T18:35:08;97619.03;;;11.85;75.12
31088;BME280;17745;55.914;37.554;2022-10-03T18:38:13;97614.78;;;11.98;74.95
31088;BME280;17745;55.914;37.554;2022-10-03T18:40:52;97632.75;;;12.01;75.42
31088;BME280;17745;55.914;37.554;2022-10-03T18:46:23;97643.56;;;12.05;75.42
31088;BME280;17745;55.914;37.554;2022-10-03T18:49:25;97650.16;;;12.07;75.39
31088;BME280;17745;55.914;37.554;2022-10-03T18:52:05;97663.91;;;12.09;75.28
31088;BME280;17745;55.914;37.554;2022-10-03T18:54:45;97668.87;;;12.11;75.08
31088;BME280;17745;55.914;37.554;2022-10-03T18:57:28;97675.87;;;12.07;74.83
31088;BME280;17745;55.914;37.554;2022-10-03T19:00:03;97678.53;;;12.07;74.91
31088;BME280;17745;55.914;37.554;2022-10-03T19:02:35;97697.09;;;12.07;74.80
31088;BME280;17745;55.914;37.554;2022-10-03T19:05:12;97697.97;;;12.02;74.86
31088;BME280;17745;55.914;37.554;2022-10-03T19:07:48;97694.66;;;11.96;74.97
31088;BME280;17745;55.914;37.554;2022-10-03T19:10:37;97709.41;;;12.03;75.07
31088;BME280;17745;55.914;37.554;2022-10-03T19:13:15;97702.41;;;12.07;74.91
31088;BME280;17745;55.914;37.554;2022-10-03T19:16:21;97702.41;;;12.07;75.23
31088;BME280;17745;55.914;37.554;2022-10-03T19:19:09;97709.59;;;12.06;75.12
31088;BME280;17745;55.914;37.554;2022-10-03T19:21:41;97703.38;;;12.11;75.45
31088;BME280;17745;55.914;37.554;2022-10-03T19:24:14;97700.22;;;12.09;75.76
31088;BME280;17745;55.914;37.554;2022-10-03T19:27:17;97721.28;;;12.65;74.63
31088;BME280;17745;55.914;37.554;2022-10-03T19:29:51;97721.28;;;12.65;74.63
31088;BME280;17745;55.914;37.554;2022-10-03T19:32:25;97710.78;;;12.23;75.74
31088;BME280;17745;55.914;37.554;2022-10-03T19:35:11;97718.94;;;12.26;75.87
31088;BME280;17745;55.914;37.554;2022-10-03T19:37:41;97716.91;;;12.23;76.02
31088;BME280;17745;55.914;37.554;2022-10-03T19:40:50;97722.56;;;12.30;76.09
31088;BME280;17745;55.914;37.554;2022-10-03T19:58:02;97744.87;;;12.66;75.42
31088;BME280;17745;55.914;37.554;2022-10-03T20:00:49;97728.16;;;12.66;75.46
31088;BME280;17745;55.914;37.554;2022-10-03T20:03:37;97741.62;;;12.69;75.37
31088;BME280;17745;55.914;37.554;2022-10-03T20:06:39;97736.91;;;12.66;75.42
31088;BME280;17745;55.914;37.554;2022-10-03T20:09:19;97733.31;;;12.71;75.38
31088;BME280;17745;55.914;37.554;2022-10-03T20:11:50;97735.28;;;12.79;75.33
31088;BME280;17745;55.914;37.554;2022-10-03T20:14:32;97739.06;;;12.87;75.44
31088;BME280;17745;55.914;37.554;2022-10-03T20:17:03;97754.44;;;12.99;75.16
31088;BME280;17745;55.914;37.554;2022-10-03T20:19:46;97755.75;;;13.10;74.73
31088;BME280;17745;55.914;37.554;2022-10-03T20:22:23;97767.84;;;13.17;74.78
31088;BME280;17745;55.914;37.554;2022-10-03T20:24:52;97755.50;;;13.21;74.82
31088;BME280;17745;55.914;37.554;2022-10-03T20:27:29;97745.03;;;13.24;74.68
31088;BME280;17745;55.914;37.554;2022-10-03T20:30:23;97744.59;;;13.31;74.65
31088;BME280;17745;55.914;37.554;2022-10-03T20:32:53;97760.59;;;13.40;74.54
31088;BME280;17745;55.914;37.554;2022-10-03T20:35:28;97758.13;;;13.43;74.64
31088;BME280;17745;55.914;37.554;2022-10-03T20:38:09;97756.44;;;13.48;74.62
31088;BME280;17745;55.914;37.554;2022-10-03T20:40:57;97758.47;;;13.51;74.83
31088;BME280;17745;55.914;37.554;2022-10-03T20:43:33;97769.56;;;13.53;74.70
31088;BME280;17745;55.914;37.554;2022-10-03T20:46:36;97780.25;;;13.62;74.52
31088;BME280;17745;55.914;37.554;2022-10-03T20:49:32;97780.28;;;13.70;74.57
31088;BME280;17745;55.914;37.554;2022-10-03T20:52:29;97777.78;;;13.74;74.71
31088;BME280;17745;55.914;37.554;2022-10-03T20:55:04;97786.69;;;13.69;74.92
31088;BME280;17745;55.914;37.554;2022-10-03T20:57:36;97767.78;;;13.71;74.51
31088;BME280;17745;55.914;37.554;2022-10-03T21:00:24;97767.94;;;13.75;74.29
31088;BME280;17745;55.914;37.554;2022-10-03T21:03:25;97772.94;;;13.76;74.59
31088;BME280;17745;55.914;37.554;2022-10-03T21:06:32;97779.19;;;13.71;74.18
31088;BME280;17745;55.914;37.554;2022-10-03T21:09:51;97779.62;;;13.65;74.22
31088;BME280;17745;55.914;37.554;2022-10-03T21:13:06;97761.31;;;13.54;74.40
31088;BME280;17745;55.914;37.554;2022-10-03T21:15:59;97769.41;;;13.49;74.15
31088;BME280;17745;55.914;37.554;2022-10-03T21:42:55;97813.53;;;13.91;74.15
31088;BME280;17745;55.914;37.554;2022-10-03T21:45:31;97819.50;;;14.05;74.41
31088;BME280;17745;55.914;37.554;2022-10-03T21:48:12;97808.25;;;14.08;74.57
31088;BME280;17745;55.914;37.554;2022-10-03T21:54:31;97807.31;;;14.13;74.34
31088;BME280;17745;55.914;37.554;2022-10-03T21:57:28;97796.81;;;14.08;74.38
31088;BME280;17745;55.914;37.554;2022-10-03T22:00:27;97821.06;;;14.06;74.18
31088;BME280;17745;55.914;37.554;2022-10-03T22:03:20;97825.28;;;13.98;74.39
31088;BME280;17745;55.914;37.554;2022-10-03T22:06:05;97828.91;;;14.03;74.59
31088;BME280;17745;55.914;37.554;2022-10-03T22:09:10;97823.56;;;14.03;74.25
31088;BME280;17745;55.914;37.554;2022-10-03T22:12:21;97830.63;;;13.98;74.35
31088;BME280;17745;55.914;37.554;2022-10-03T22:19:31;97845.50;;;14.08;73.96
31088;BME280;17745;55.914;37.554;2022-10-03T22:22:29;97834.06;;;14.08;74.53
31088;BME280;17745;55.914;37.554;2022-10-03T22:25:32;97851.81;;;14.21;74.28
31088;BME280;17745;55.914;37.554;2022-10-03T22:28:37;97850.84;;;14.26;73.83